BAW8K KDFW-EGLL
Flight info
| Callsign | BAW8K |
|---|---|
| Flight time | N/A |
| Altitude | 39000 |
| Route | ZACHH4 BSKAT DCT LIT DCT KM39M DCT LAJUG Q68 YOCKY DCT HVQ DCT EMNEM Q71 PSYKO DCT IZZEE DCT DGRAF J49 HNK DCT QUINZ DCT ENE DCT EBONY N567B TUDEP/M084F400 DCT 52N050W 53N040W 54N030W 55N020W DCT RESNO DCT NETKI/N0482F410 DCT BOFUM Q37 MALUD Q38 NUGRA NUGRA2H |
| Aircraft | B789/H-SADE1E2E3FGHIJ1J3J4J5J6LM1M2OP2RWXYZ/LB1D1G1 |
Departure
| Time | 2026-05-06 04:35 |
|---|---|
| Airport | Dallas Fort Worth International Airport (KDFW) |
Arrival
| Time | N/A |
|---|---|
| Airport | London Heathrow Airport (EGLL) |
| Time | Latitude | Longitude | Altitude | Speed | Heading |
|---|---|---|---|---|---|
| 2026-05-06 03:36 | 32.89495 | -97.04464 | 603 ft | 0 kts | 0° |
| 2026-05-06 04:17 | 32.89494 | -97.04464 | 603 ft | 0 kts | 0° |
| 2026-05-06 04:18 | 32.89473 | -97.04465 | 603 ft | 4 kts | 0° |
| 2026-05-06 04:18 | 32.89451 | -97.04465 | 603 ft | 4 kts | 357° |
| 2026-05-06 04:18 | 32.89432 | -97.04460 | 603 ft | 4 kts | 314° |
| 2026-05-06 04:18 | 32.89426 | -97.04443 | 603 ft | 3 kts | 270° |
| 2026-05-06 04:19 | 32.89426 | -97.04411 | 603 ft | 4 kts | 270° |
| 2026-05-06 04:19 | 32.89426 | -97.04403 | 603 ft | 0 kts | 270° |
| 2026-05-06 04:24 | 32.89426 | -97.04404 | 603 ft | 0 kts | 270° |
| 2026-05-06 04:25 | 32.89426 | -97.04418 | 603 ft | 3 kts | 270° |
| 2026-05-06 04:25 | 32.89426 | -97.04450 | 603 ft | 5 kts | 270° |
| 2026-05-06 04:25 | 32.89427 | -97.04504 | 603 ft | 7 kts | 271° |
| 2026-05-06 04:25 | 32.89427 | -97.04569 | 603 ft | 8 kts | 271° |
| 2026-05-06 04:26 | 32.89428 | -97.04643 | 603 ft | 9 kts | 271° |
| 2026-05-06 04:26 | 32.89427 | -97.04726 | 600 ft | 11 kts | 261° |
| 2026-05-06 04:26 | 32.89395 | -97.04762 | 600 ft | 6 kts | 196° |
| 2026-05-06 04:26 | 32.89339 | -97.04766 | 600 ft | 9 kts | 180° |
| 2026-05-06 04:27 | 32.89272 | -97.04767 | 600 ft | 11 kts | 180° |
| 2026-05-06 04:27 | 32.89174 | -97.04768 | 599 ft | 16 kts | 180° |
| 2026-05-06 04:27 | 32.89052 | -97.04768 | 596 ft | 19 kts | 180° |
| 2026-05-06 04:27 | 32.88916 | -97.04769 | 596 ft | 20 kts | 180° |
| 2026-05-06 04:28 | 32.88779 | -97.04770 | 596 ft | 20 kts | 180° |
| 2026-05-06 04:28 | 32.88634 | -97.04770 | 593 ft | 22 kts | 180° |
| 2026-05-06 04:28 | 32.88520 | -97.04762 | 593 ft | 7 kts | 142° |
| 2026-05-06 04:28 | 32.88504 | -97.04710 | 592 ft | 10 kts | 97° |
| 2026-05-06 04:29 | 32.88503 | -97.04593 | 593 ft | 16 kts | 91° |
| 2026-05-06 04:29 | 32.88502 | -97.04472 | 596 ft | 14 kts | 90° |
| 2026-05-06 04:29 | 32.88502 | -97.04352 | 602 ft | 15 kts | 90° |
| 2026-05-06 04:29 | 32.88502 | -97.04220 | 606 ft | 17 kts | 90° |
| 2026-05-06 04:30 | 32.88501 | -97.04078 | 618 ft | 17 kts | 90° |
| 2026-05-06 04:30 | 32.88501 | -97.03925 | 602 ft | 20 kts | 90° |
| 2026-05-06 04:30 | 32.88501 | -97.03745 | 594 ft | 24 kts | 90° |
| 2026-05-06 04:30 | 32.88499 | -97.03526 | 585 ft | 28 kts | 90° |
| 2026-05-06 04:31 | 32.88498 | -97.03341 | 583 ft | 14 kts | 95° |
| 2026-05-06 04:31 | 32.88449 | -97.03290 | 584 ft | 8 kts | 171° |
| 2026-05-06 04:31 | 32.88386 | -97.03288 | 585 ft | 12 kts | 181° |
| 2026-05-06 04:31 | 32.88282 | -97.03290 | 582 ft | 17 kts | 180° |
| 2026-05-06 04:32 | 32.88156 | -97.03291 | 582 ft | 19 kts | 180° |
| 2026-05-06 04:32 | 32.88026 | -97.03291 | 587 ft | 18 kts | 179° |
| 2026-05-06 04:32 | 32.87927 | -97.03280 | 585 ft | 10 kts | 146° |
| 2026-05-06 04:32 | 32.87905 | -97.03212 | 586 ft | 9 kts | 96° |
| 2026-05-06 04:33 | 32.87902 | -97.03133 | 585 ft | 9 kts | 90° |
| 2026-05-06 04:33 | 32.87902 | -97.03048 | 578 ft | 9 kts | 90° |
| 2026-05-06 04:33 | 32.87920 | -97.03015 | 579 ft | 3 kts | 24° |
| 2026-05-06 04:33 | 32.87941 | -97.03009 | 577 ft | 3 kts | 8° |
| 2026-05-06 04:34 | 32.87999 | -97.03007 | 578 ft | 19 kts | 0° |
| 2026-05-06 04:34 | 32.88297 | -97.03006 | 583 ft | 70 kts | 0° |
| 2026-05-06 04:34 | 32.88950 | -97.03001 | 578 ft | 120 kts | 0° |
| 2026-05-06 04:34 | 32.89937 | -97.02994 | 590 ft | 162 kts | 1° |
| 2026-05-06 04:35 | 32.91053 | -97.02994 | 1201 ft | 149 kts | 359° |
| 2026-05-06 04:35 | 32.92066 | -97.03001 | 1741 ft | 144 kts | 1° |
| 2026-05-06 04:35 | 32.93070 | -97.03011 | 2145 ft | 143 kts | 1° |
| 2026-05-06 04:35 | 32.94090 | -97.02992 | 2373 ft | 154 kts | 1° |
| 2026-05-06 04:36 | 32.95222 | -97.02950 | 2492 ft | 171 kts | 359° |
| 2026-05-06 04:36 | 32.96469 | -97.02907 | 2703 ft | 187 kts | 359° |
| 2026-05-06 04:36 | 32.97813 | -97.02857 | 3036 ft | 199 kts | 0° |
| 2026-05-06 04:36 | 32.99234 | -97.02803 | 3373 ft | 210 kts | 0° |
| 2026-05-06 04:37 | 33.00747 | -97.02751 | 3697 ft | 225 kts | 360° |
| 2026-05-06 04:37 | 33.02354 | -97.02691 | 4035 ft | 237 kts | 0° |
| 2026-05-06 04:37 | 33.04056 | -97.02633 | 4325 ft | 254 kts | 359° |
| 2026-05-06 04:37 | 33.05860 | -97.02346 | 4600 ft | 275 kts | 20° |
| 2026-05-06 04:38 | 33.07357 | -97.00897 | 5214 ft | 283 kts | 53° |
| 2026-05-06 04:38 | 33.08086 | -96.98718 | 5807 ft | 290 kts | 83° |
| 2026-05-06 04:38 | 33.08208 | -96.96312 | 6473 ft | 292 kts | 90° |
| 2026-05-06 04:38 | 33.08255 | -96.93876 | 7079 ft | 296 kts | 92° |
| 2026-05-06 04:39 | 33.08015 | -96.91417 | 7609 ft | 301 kts | 102° |
| 2026-05-06 04:39 | 33.07660 | -96.88941 | 8293 ft | 304 kts | 102° |
| 2026-05-06 04:39 | 33.07297 | -96.86453 | 8901 ft | 308 kts | 102° |
| 2026-05-06 04:39 | 33.06944 | -96.83908 | 9502 ft | 313 kts | 102° |
| 2026-05-06 04:40 | 33.06591 | -96.81325 | 10099 ft | 318 kts | 102° |
| 2026-05-06 04:40 | 33.06222 | -96.78677 | 10500 ft | 331 kts | 103° |
| 2026-05-06 04:40 | 33.05829 | -96.75903 | 10805 ft | 347 kts | 103° |
| 2026-05-06 04:40 | 33.05428 | -96.73042 | 11117 ft | 363 kts | 103° |
| 2026-05-06 04:41 | 33.05007 | -96.70017 | 11447 ft | 377 kts | 103° |
| 2026-05-06 04:41 | 33.04574 | -96.66913 | 12005 ft | 382 kts | 103° |
| 2026-05-06 04:41 | 33.04135 | -96.63772 | 12615 ft | 386 kts | 104° |
| 2026-05-06 04:41 | 33.03686 | -96.60594 | 13172 ft | 391 kts | 104° |
| 2026-05-06 04:42 | 33.03229 | -96.57374 | 13716 ft | 397 kts | 104° |
| 2026-05-06 04:42 | 33.02769 | -96.54111 | 14234 ft | 402 kts | 104° |
| 2026-05-06 04:42 | 33.02301 | -96.50798 | 14753 ft | 407 kts | 104° |
| 2026-05-06 04:42 | 33.01827 | -96.47456 | 15268 ft | 412 kts | 104° |
| 2026-05-06 04:43 | 33.01345 | -96.44074 | 15751 ft | 416 kts | 104° |
| 2026-05-06 04:43 | 33.00857 | -96.40654 | 16222 ft | 421 kts | 104° |
| 2026-05-06 04:43 | 33.00368 | -96.37192 | 16700 ft | 426 kts | 103° |
| 2026-05-06 04:43 | 33.00284 | -96.33620 | 17034 ft | 439 kts | 86° |
| 2026-05-06 04:44 | 33.00954 | -96.30056 | 17477 ft | 445 kts | 70° |
| 2026-05-06 04:44 | 33.02160 | -96.26660 | 17960 ft | 447 kts | 66° |
| 2026-05-06 04:44 | 33.03394 | -96.23241 | 18390 ft | 451 kts | 66° |
| 2026-05-06 04:44 | 33.04617 | -96.19780 | 18843 ft | 455 kts | 66° |
| 2026-05-06 04:45 | 33.05841 | -96.16286 | 19270 ft | 459 kts | 66° |
| 2026-05-06 04:45 | 33.07067 | -96.12814 | 19691 ft | 462 kts | 66° |
| 2026-05-06 04:45 | 33.08340 | -96.09230 | 20135 ft | 465 kts | 66° |
| 2026-05-06 04:45 | 33.09584 | -96.05712 | 20536 ft | 468 kts | 66° |
| 2026-05-06 04:46 | 33.10848 | -96.02118 | 20944 ft | 471 kts | 66° |
| 2026-05-06 04:46 | 33.12115 | -95.98501 | 21334 ft | 474 kts | 66° |
| 2026-05-06 04:46 | 33.13396 | -95.94878 | 21734 ft | 476 kts | 66° |
| 2026-05-06 04:46 | 33.14683 | -95.91231 | 22118 ft | 477 kts | 66° |
| 2026-05-06 04:47 | 33.15962 | -95.87565 | 22474 ft | 480 kts | 66° |
| 2026-05-06 04:47 | 33.17250 | -95.83876 | 22846 ft | 483 kts | 66° |
| 2026-05-06 04:47 | 33.18551 | -95.80166 | 23209 ft | 485 kts | 66° |
| 2026-05-06 04:47 | 33.19852 | -95.76437 | 23564 ft | 488 kts | 66° |
| 2026-05-06 04:48 | 33.21156 | -95.72684 | 23916 ft | 490 kts | 66° |
| 2026-05-06 04:48 | 33.22464 | -95.68917 | 24261 ft | 493 kts | 66° |
| 2026-05-06 04:48 | 33.23782 | -95.65129 | 24564 ft | 495 kts | 66° |
| 2026-05-06 04:48 | 33.25106 | -95.61316 | 24872 ft | 498 kts | 66° |
| 2026-05-06 04:49 | 33.26435 | -95.57478 | 25165 ft | 501 kts | 66° |
| 2026-05-06 04:49 | 33.27771 | -95.53617 | 25448 ft | 505 kts | 66° |
| 2026-05-06 04:49 | 33.29117 | -95.49728 | 25726 ft | 508 kts | 66° |
| 2026-05-06 04:49 | 33.30467 | -95.45817 | 26031 ft | 510 kts | 66° |
| 2026-05-06 04:50 | 33.31823 | -95.41884 | 26316 ft | 513 kts | 66° |
| 2026-05-06 04:50 | 33.33188 | -95.37923 | 26605 ft | 516 kts | 66° |
| 2026-05-06 04:50 | 33.34555 | -95.33947 | 26866 ft | 519 kts | 66° |
| 2026-05-06 04:50 | 33.35931 | -95.29941 | 27120 ft | 522 kts | 66° |
| 2026-05-06 04:51 | 33.37316 | -95.25908 | 27369 ft | 526 kts | 66° |
| 2026-05-06 04:51 | 33.38707 | -95.21851 | 27650 ft | 528 kts | 66° |
| 2026-05-06 04:51 | 33.40102 | -95.17777 | 27925 ft | 531 kts | 66° |
| 2026-05-06 04:51 | 33.41507 | -95.13665 | 28173 ft | 534 kts | 65° |
| 2026-05-06 04:52 | 33.42897 | -95.09595 | 28413 ft | 538 kts | 65° |
| 2026-05-06 04:52 | 33.44314 | -95.05438 | 28705 ft | 541 kts | 65° |
| 2026-05-06 04:52 | 33.45738 | -95.01255 | 28953 ft | 544 kts | 65° |
| 2026-05-06 04:52 | 33.47169 | -94.97053 | 29191 ft | 547 kts | 65° |
| 2026-05-06 04:53 | 33.48605 | -94.92825 | 29467 ft | 550 kts | 65° |
| 2026-05-06 04:53 | 33.50048 | -94.88567 | 29700 ft | 553 kts | 65° |
| 2026-05-06 04:53 | 33.51498 | -94.84283 | 29941 ft | 557 kts | 65° |
| 2026-05-06 04:53 | 33.52959 | -94.79969 | 30176 ft | 560 kts | 65° |
| 2026-05-06 04:54 | 33.54424 | -94.75634 | 30435 ft | 563 kts | 65° |
| 2026-05-06 04:54 | 33.55896 | -94.71266 | 30692 ft | 566 kts | 65° |
| 2026-05-06 04:54 | 33.57373 | -94.66879 | 30943 ft | 569 kts | 65° |
| 2026-05-06 04:54 | 33.58857 | -94.62471 | 31201 ft | 572 kts | 65° |
| 2026-05-06 04:55 | 33.60349 | -94.58034 | 31460 ft | 575 kts | 65° |
| 2026-05-06 04:55 | 33.61841 | -94.53571 | 31717 ft | 578 kts | 65° |
| 2026-05-06 04:55 | 33.63344 | -94.49088 | 31980 ft | 580 kts | 64° |
| 2026-05-06 04:55 | 33.64856 | -94.44589 | 32224 ft | 583 kts | 64° |
| 2026-05-06 04:56 | 33.66365 | -94.40064 | 32488 ft | 586 kts | 64° |
| 2026-05-06 04:56 | 33.67878 | -94.35515 | 32754 ft | 588 kts | 64° |
| 2026-05-06 04:56 | 33.69400 | -94.30945 | 33014 ft | 591 kts | 64° |
| 2026-05-06 04:56 | 33.70934 | -94.26359 | 33286 ft | 592 kts | 63° |
| 2026-05-06 04:57 | 33.72742 | -94.22008 | 33482 ft | 589 kts | 55° |
| 2026-05-06 04:57 | 33.74803 | -94.17753 | 33762 ft | 589 kts | 53° |
| 2026-05-06 04:57 | 33.76904 | -94.13510 | 34064 ft | 591 kts | 53° |
| 2026-05-06 04:57 | 33.78957 | -94.09223 | 34402 ft | 593 kts | 55° |
| 2026-05-06 04:58 | 33.80974 | -94.04901 | 34764 ft | 592 kts | 55° |
| 2026-05-06 04:58 | 33.83016 | -94.00594 | 35081 ft | 592 kts | 54° |
| 2026-05-06 04:58 | 33.85089 | -93.96311 | 35421 ft | 592 kts | 54° |
| 2026-05-06 04:58 | 33.87146 | -93.92026 | 35744 ft | 593 kts | 54° |
| 2026-05-06 04:59 | 33.89183 | -93.87706 | 36058 ft | 593 kts | 55° |
| 2026-05-06 04:59 | 33.91217 | -93.83389 | 36361 ft | 593 kts | 54° |
| 2026-05-06 04:59 | 33.93268 | -93.79084 | 36661 ft | 593 kts | 54° |
| 2026-05-06 04:59 | 33.95324 | -93.74773 | 36932 ft | 594 kts | 54° |
| 2026-05-06 05:00 | 33.96679 | -93.71912 | 37139 ft | 593 kts | 55° |
| 2026-05-06 05:00 | 33.98710 | -93.67592 | 37485 ft | 592 kts | 55° |
| 2026-05-06 05:00 | 34.00737 | -93.63290 | 37839 ft | 589 kts | 55° |
| 2026-05-06 05:00 | 34.02764 | -93.59007 | 38183 ft | 587 kts | 54° |
| 2026-05-06 05:01 | 34.04834 | -93.54779 | 38443 ft | 583 kts | 50° |
| 2026-05-06 05:01 | 34.07078 | -93.50715 | 38624 ft | 582 kts | 49° |
| 2026-05-06 05:01 | 34.09368 | -93.46680 | 38782 ft | 584 kts | 49° |
| 2026-05-06 05:02 | 34.13903 | -93.38492 | 38812 ft | 586 kts | 50° |
| 2026-05-06 05:02 | 34.18391 | -93.30354 | 38814 ft | 580 kts | 49° |
| 2026-05-06 05:03 | 34.22878 | -93.22262 | 38815 ft | 580 kts | 50° |
| 2026-05-06 05:03 | 34.27335 | -93.14132 | 38814 ft | 580 kts | 49° |
| 2026-05-06 05:04 | 34.31813 | -93.06013 | 38817 ft | 580 kts | 49° |
| 2026-05-06 05:04 | 34.36251 | -92.97893 | 38827 ft | 578 kts | 49° |
| 2026-05-06 05:05 | 34.40662 | -92.89846 | 38827 ft | 576 kts | 49° |
| 2026-05-06 05:05 | 34.45079 | -92.81743 | 38829 ft | 578 kts | 49° |
| 2026-05-06 05:06 | 34.49513 | -92.73604 | 38833 ft | 578 kts | 49° |
| 2026-05-06 05:06 | 34.53932 | -92.65465 | 38829 ft | 577 kts | 49° |
| 2026-05-06 05:07 | 34.58333 | -92.57348 | 38815 ft | 576 kts | 49° |
| 2026-05-06 05:07 | 34.62726 | -92.49224 | 38817 ft | 576 kts | 49° |
| 2026-05-06 05:08 | 34.67123 | -92.41072 | 38820 ft | 577 kts | 49° |
| 2026-05-06 05:08 | 34.71516 | -92.32914 | 38812 ft | 578 kts | 49° |
| 2026-05-06 05:09 | 34.75909 | -92.24732 | 38812 ft | 578 kts | 49° |
| 2026-05-06 05:09 | 34.80295 | -92.16546 | 38811 ft | 577 kts | 49° |
| 2026-05-06 05:10 | 34.84184 | -92.07915 | 38808 ft | 584 kts | 56° |
| 2026-05-06 05:10 | 34.87910 | -91.99195 | 38811 ft | 584 kts | 55° |
| 2026-05-06 05:11 | 34.91708 | -91.90450 | 38813 ft | 583 kts | 56° |
| 2026-05-06 05:11 | 34.95437 | -91.81700 | 38812 ft | 581 kts | 55° |
| 2026-05-06 05:12 | 34.99190 | -91.72984 | 38817 ft | 581 kts | 55° |
| 2026-05-06 05:12 | 35.02918 | -91.64222 | 38842 ft | 582 kts | 55° |
| 2026-05-06 05:13 | 35.06665 | -91.55446 | 38851 ft | 583 kts | 56° |
| 2026-05-06 05:13 | 35.10395 | -91.46657 | 38856 ft | 583 kts | 56° |
| 2026-05-06 05:14 | 35.14127 | -91.37853 | 38858 ft | 583 kts | 56° |
| 2026-05-06 05:14 | 35.17850 | -91.29044 | 38860 ft | 584 kts | 56° |
| 2026-05-06 05:15 | 35.21571 | -91.20215 | 38846 ft | 584 kts | 56° |
| 2026-05-06 05:15 | 35.25258 | -91.11445 | 38839 ft | 583 kts | 56° |
| 2026-05-06 05:16 | 35.28950 | -91.02638 | 38833 ft | 580 kts | 56° |
| 2026-05-06 05:16 | 35.32629 | -90.93847 | 38836 ft | 581 kts | 56° |
| 2026-05-06 05:17 | 35.36301 | -90.85040 | 38839 ft | 581 kts | 56° |
| 2026-05-06 05:17 | 35.39967 | -90.76228 | 38839 ft | 580 kts | 56° |
| 2026-05-06 05:18 | 35.43625 | -90.67412 | 38839 ft | 580 kts | 56° |
| 2026-05-06 05:18 | 35.47274 | -90.58594 | 38849 ft | 580 kts | 56° |
| 2026-05-06 05:19 | 35.50922 | -90.49755 | 38853 ft | 581 kts | 56° |
| 2026-05-06 05:19 | 35.54559 | -90.40913 | 38854 ft | 580 kts | 56° |
| 2026-05-06 05:20 | 35.58191 | -90.32071 | 38854 ft | 580 kts | 56° |
| 2026-05-06 05:20 | 35.61813 | -90.23221 | 38855 ft | 580 kts | 56° |
| 2026-05-06 05:21 | 35.65432 | -90.14360 | 38848 ft | 580 kts | 56° |
| 2026-05-06 05:21 | 35.69043 | -90.05488 | 38849 ft | 580 kts | 56° |
| 2026-05-06 05:22 | 35.72651 | -89.96604 | 38850 ft | 580 kts | 56° |
| 2026-05-06 05:22 | 35.76250 | -89.87717 | 38858 ft | 580 kts | 57° |
| 2026-05-06 05:23 | 35.79844 | -89.78819 | 38857 ft | 580 kts | 57° |
| 2026-05-06 05:23 | 35.85200 | -89.65510 | 38860 ft | 580 kts | 56° |
| 2026-05-06 05:24 | 35.88776 | -89.56600 | 38859 ft | 579 kts | 57° |
| 2026-05-06 05:24 | 35.92330 | -89.47711 | 38856 ft | 577 kts | 57° |
| 2026-05-06 05:25 | 35.95876 | -89.38826 | 38845 ft | 577 kts | 56° |
| 2026-05-06 05:25 | 35.99412 | -89.29936 | 38846 ft | 576 kts | 57° |
| 2026-05-06 05:26 | 36.02935 | -89.21056 | 38845 ft | 576 kts | 57° |
| 2026-05-06 05:26 | 36.06460 | -89.12149 | 38853 ft | 577 kts | 56° |
| 2026-05-06 05:27 | 36.09972 | -89.03243 | 38853 ft | 576 kts | 56° |
| 2026-05-06 05:27 | 36.13468 | -88.94360 | 38852 ft | 573 kts | 56° |
| 2026-05-06 05:28 | 36.16948 | -88.85493 | 38852 ft | 572 kts | 56° |
| 2026-05-06 05:28 | 36.20390 | -88.76695 | 38850 ft | 572 kts | 56° |
| 2026-05-06 05:29 | 36.23848 | -88.67835 | 38851 ft | 571 kts | 56° |
| 2026-05-06 05:29 | 36.27286 | -88.58996 | 38850 ft | 569 kts | 56° |
| 2026-05-06 05:30 | 36.30715 | -88.50165 | 38850 ft | 568 kts | 56° |
| 2026-05-06 05:30 | 36.34131 | -88.41333 | 38858 ft | 568 kts | 56° |
| 2026-05-06 05:31 | 36.37539 | -88.32509 | 38857 ft | 567 kts | 56° |
| 2026-05-06 05:31 | 36.40931 | -88.23688 | 38854 ft | 566 kts | 56° |
| 2026-05-06 05:32 | 36.44329 | -88.14844 | 38861 ft | 569 kts | 56° |
| 2026-05-06 05:32 | 36.47727 | -88.05956 | 38868 ft | 570 kts | 56° |
| 2026-05-06 05:33 | 36.50589 | -87.96701 | 38852 ft | 585 kts | 72° |
| 2026-05-06 05:33 | 36.52185 | -87.86765 | 38862 ft | 586 kts | 73° |
| 2026-05-06 05:34 | 36.53846 | -87.76859 | 38844 ft | 585 kts | 72° |
| 2026-05-06 05:34 | 36.55467 | -87.66972 | 38845 ft | 583 kts | 73° |
| 2026-05-06 05:35 | 36.57065 | -87.57168 | 38843 ft | 582 kts | 73° |